sensor_id;sensor_type;location;lat;lon;timestamp;P1;durP1;ratioP1;P2;durP2;ratioP2
69542;SDS011;56762;49.494;11.768;2022-09-11T00:01:08;1.40;;;0.70;;
69542;SDS011;56762;49.494;11.768;2022-09-11T00:03:37;1.83;;;0.80;;
69542;SDS011;56762;49.494;11.768;2022-09-11T00:06:07;2.55;;;0.90;;
69542;SDS011;56762;49.494;11.768;2022-09-11T00:08:38;2.53;;;0.95;;
69542;SDS011;56762;49.494;11.768;2022-09-11T00:11:07;2.83;;;1.08;;
69542;SDS011;56762;49.494;11.768;2022-09-11T00:13:38;2.17;;;1.10;;
69542;SDS011;56762;49.494;11.768;2022-09-11T00:16:07;2.85;;;1.02;;
69542;SDS011;56762;49.494;11.768;2022-09-11T00:18:45;2.63;;;1.20;;
69542;SDS011;56762;49.494;11.768;2022-09-11T00:21:14;3.03;;;1.35;;
69542;SDS011;56762;49.494;11.768;2022-09-11T00:23:43;4.35;;;1.40;;
69542;SDS011;56762;49.494;11.768;2022-09-11T00:26:13;2.27;;;1.00;;
69542;SDS011;56762;49.494;11.768;2022-09-11T00:28:43;1.77;;;1.00;;
69542;SDS011;56762;49.494;11.768;2022-09-11T00:31:12;3.08;;;1.17;;
69542;SDS011;56762;49.494;11.768;2022-09-11T00:33:42;2.85;;;1.17;;
69542;SDS011;56762;49.494;11.768;2022-09-11T00:36:11;2.83;;;1.63;;
69542;SDS011;56762;49.494;11.768;2022-09-11T00:38:41;2.77;;;1.50;;
69542;SDS011;56762;49.494;11.768;2022-09-11T00:41:12;2.47;;;1.38;;
69542;SDS011;56762;49.494;11.768;2022-09-11T00:43:50;3.45;;;1.30;;
69542;SDS011;56762;49.494;11.768;2022-09-11T00:46:20;4.65;;;1.70;;
69542;SDS011;56762;49.494;11.768;2022-09-11T00:48:52;3.20;;;1.40;;
69542;SDS011;56762;49.494;11.768;2022-09-11T00:51:23;1.80;;;1.03;;
69542;SDS011;56762;49.494;11.768;2022-09-11T00:53:54;3.05;;;1.23;;
69542;SDS011;56762;49.494;11.768;2022-09-11T00:56:25;2.13;;;1.20;;
69542;SDS011;56762;49.494;11.768;2022-09-11T00:58:57;1.95;;;1.05;;
69542;SDS011;56762;49.494;11.768;2022-09-11T01:01:26;3.15;;;1.25;;
69542;SDS011;56762;49.494;11.768;2022-09-11T01:03:54;2.33;;;1.20;;
69542;SDS011;56762;49.494;11.768;2022-09-11T01:06:22;2.67;;;1.27;;
69542;SDS011;56762;49.494;11.768;2022-09-11T01:08:51;4.32;;;1.50;;
69542;SDS011;56762;49.494;11.768;2022-09-11T01:11:22;2.33;;;1.23;;
69542;SDS011;56762;49.494;11.768;2022-09-11T01:14:03;3.10;;;1.90;;
69542;SDS011;56762;49.494;11.768;2022-09-11T01:16:41;3.07;;;1.30;;
69542;SDS011;56762;49.494;11.768;2022-09-11T01:19:19;3.50;;;1.35;;
69542;SDS011;56762;49.494;11.768;2022-09-11T01:25:00;3.08;;;1.30;;
69542;SDS011;56762;49.494;11.768;2022-09-11T01:27:39;2.40;;;1.20;;
69542;SDS011;56762;49.494;11.768;2022-09-11T01:30:10;3.97;;;1.17;;
69542;SDS011;56762;49.494;11.768;2022-09-11T01:32:42;3.67;;;1.40;;
69542;SDS011;56762;49.494;11.768;2022-09-11T01:35:25;2.28;;;1.27;;
69542;SDS011;56762;49.494;11.768;2022-09-11T01:38:03;3.63;;;1.35;;
69542;SDS011;56762;49.494;11.768;2022-09-11T01:40:37;3.38;;;1.30;;
69542;SDS011;56762;49.494;11.768;2022-09-11T01:43:13;3.77;;;1.53;;
69542;SDS011;56762;49.494;11.768;2022-09-11T01:45:44;3.67;;;1.20;;
69542;SDS011;56762;49.494;11.768;2022-09-11T01:48:14;3.00;;;0.95;;
69542;SDS011;56762;49.494;11.768;2022-09-11T01:50:46;4.38;;;1.20;;
69542;SDS011;56762;49.494;11.768;2022-09-11T01:53:16;2.88;;;1.10;;
69542;SDS011;56762;49.494;11.768;2022-09-11T01:55:48;2.67;;;1.20;;
69542;SDS011;56762;49.494;11.768;2022-09-11T01:58:23;1.95;;;1.10;;
69542;SDS011;56762;49.494;11.768;2022-09-11T02:00:55;1.67;;;0.75;;
69542;SDS011;56762;49.494;11.768;2022-09-11T02:03:30;1.50;;;0.55;;
69542;SDS011;56762;49.494;11.768;2022-09-11T02:06:03;4.00;;;1.27;;
69542;SDS011;56762;49.494;11.768;2022-09-11T02:08:36;2.40;;;0.90;;
69542;SDS011;56762;49.494;11.768;2022-09-11T02:11:10;2.40;;;0.90;;
69542;SDS011;56762;49.494;11.768;2022-09-11T02:13:44;2.15;;;0.80;;
69542;SDS011;56762;49.494;11.768;2022-09-11T02:16:17;1.90;;;0.90;;
69542;SDS011;56762;49.494;11.768;2022-09-11T02:18:51;2.08;;;0.93;;
69542;SDS011;56762;49.494;11.768;2022-09-11T02:21:25;2.47;;;1.00;;
69542;SDS011;56762;49.494;11.768;2022-09-11T02:23:53;2.30;;;0.80;;
69542;SDS011;56762;49.494;11.768;2022-09-11T02:26:22;3.53;;;1.70;;
69542;SDS011;56762;49.494;11.768;2022-09-11T02:28:53;3.17;;;1.10;;
69542;SDS011;56762;49.494;11.768;2022-09-11T02:31:24;2.78;;;0.95;;
69542;SDS011;56762;49.494;11.768;2022-09-11T02:33:53;1.97;;;0.80;;
69542;SDS011;56762;49.494;11.768;2022-09-11T02:39:15;2.55;;;0.70;;
69542;SDS011;56762;49.494;11.768;2022-09-11T02:42:06;2.90;;;0.98;;
69542;SDS011;56762;49.494;11.768;2022-09-11T02:44:49;2.45;;;1.05;;
69542;SDS011;56762;49.494;11.768;2022-09-11T02:47:23;1.67;;;0.80;;
69542;SDS011;56762;49.494;11.768;2022-09-11T02:50:04;2.72;;;0.80;;
69542;SDS011;56762;49.494;11.768;2022-09-11T02:52:40;3.67;;;1.20;;
69542;SDS011;56762;49.494;11.768;2022-09-11T02:55:16;1.85;;;0.85;;
69542;SDS011;56762;49.494;11.768;2022-09-11T02:57:50;1.33;;;0.50;;
69542;SDS011;56762;49.494;11.768;2022-09-11T03:00:25;1.20;;;0.50;;
69542;SDS011;56762;49.494;11.768;2022-09-11T03:02:54;1.50;;;0.60;;
69542;SDS011;56762;49.494;11.768;2022-09-11T03:05:21;1.02;;;0.60;;
69542;SDS011;56762;49.494;11.768;2022-09-11T03:07:49;2.30;;;0.90;;
69542;SDS011;56762;49.494;11.768;2022-09-11T03:10:17;2.10;;;0.70;;
69542;SDS011;56762;49.494;11.768;2022-09-11T03:12:45;2.33;;;0.60;;
69542;SDS011;56762;49.494;11.768;2022-09-11T03:15:13;2.20;;;0.60;;
69542;SDS011;56762;49.494;11.768;2022-09-11T03:17:43;1.60;;;0.70;;
69542;SDS011;56762;49.494;11.768;2022-09-11T03:20:11;2.53;;;0.70;;
69542;SDS011;56762;49.494;11.768;2022-09-11T03:22:39;1.63;;;0.75;;
69542;SDS011;56762;49.494;11.768;2022-09-11T03:25:08;1.50;;;0.63;;
69542;SDS011;56762;49.494;11.768;2022-09-11T03:27:36;1.67;;;0.75;;
69542;SDS011;56762;49.494;11.768;2022-09-11T03:30:05;1.45;;;0.70;;
69542;SDS011;56762;49.494;11.768;2022-09-11T03:32:34;2.03;;;0.90;;
69542;SDS011;56762;49.494;11.768;2022-09-11T03:35:03;1.42;;;0.70;;
69542;SDS011;56762;49.494;11.768;2022-09-11T03:37:31;1.80;;;0.80;;
69542;SDS011;56762;49.494;11.768;2022-09-11T03:39:59;2.28;;;0.77;;
69542;SDS011;56762;49.494;11.768;2022-09-11T03:42:28;2.17;;;0.77;;
69542;SDS011;56762;49.494;11.768;2022-09-11T03:44:57;2.28;;;1.10;;
69542;SDS011;56762;49.494;11.768;2022-09-11T03:47:25;2.50;;;0.90;;
69542;SDS011;56762;49.494;11.768;2022-09-11T03:49:53;2.80;;;1.00;;
69542;SDS011;56762;49.494;11.768;2022-09-11T03:52:22;1.55;;;0.85;;
69542;SDS011;56762;49.494;11.768;2022-09-11T03:54:50;1.38;;;0.70;;
69542;SDS011;56762;49.494;11.768;2022-09-11T03:57:18;1.40;;;0.80;;
69542;SDS011;56762;49.494;11.768;2022-09-11T03:59:46;1.77;;;1.00;;
69542;SDS011;56762;49.494;11.768;2022-09-11T04:02:14;2.50;;;1.17;;
69542;SDS011;56762;49.494;11.768;2022-09-11T04:04:42;1.30;;;0.80;;
69542;SDS011;56762;49.494;11.768;2022-09-11T04:07:10;2.63;;;0.88;;
69542;SDS011;56762;49.494;11.768;2022-09-11T04:09:41;2.55;;;0.90;;
69542;SDS011;56762;49.494;11.768;2022-09-11T04:12:10;1.85;;;0.82;;
69542;SDS011;56762;49.494;11.768;2022-09-11T04:14:38;1.20;;;0.80;;
69542;SDS011;56762;49.494;11.768;2022-09-11T04:17:06;2.25;;;1.13;;
69542;SDS011;56762;49.494;11.768;2022-09-11T04:19:35;1.02;;;0.63;;
69542;SDS011;56762;49.494;11.768;2022-09-11T04:22:03;1.70;;;1.10;;
69542;SDS011;56762;49.494;11.768;2022-09-11T04:24:30;1.92;;;0.80;;
69542;SDS011;56762;49.494;11.768;2022-09-11T04:27:00;1.27;;;0.70;;
69542;SDS011;56762;49.494;11.768;2022-09-11T04:29:28;1.80;;;1.00;;
69542;SDS011;56762;49.494;11.768;2022-09-11T04:31:57;1.58;;;0.70;;
69542;SDS011;56762;49.494;11.768;2022-09-11T04:34:25;3.03;;;1.20;;
69542;SDS011;56762;49.494;11.768;2022-09-11T04:36:53;1.73;;;0.90;;
69542;SDS011;56762;49.494;11.768;2022-09-11T04:39:21;2.47;;;1.23;;
69542;SDS011;56762;49.494;11.768;2022-09-11T04:41:49;2.15;;;1.25;;
69542;SDS011;56762;49.494;11.768;2022-09-11T04:44:19;2.00;;;1.20;;
69542;SDS011;56762;49.494;11.768;2022-09-11T04:46:47;2.05;;;1.23;;
69542;SDS011;56762;49.494;11.768;2022-09-11T04:49:15;2.35;;;1.40;;
69542;SDS011;56762;49.494;11.768;2022-09-11T04:51:42;1.87;;;1.13;;
69542;SDS011;56762;49.494;11.768;2022-09-11T04:54:11;2.22;;;1.13;;
69542;SDS011;56762;49.494;11.768;2022-09-11T04:56:40;2.60;;;1.10;;
69542;SDS011;56762;49.494;11.768;2022-09-11T04:59:10;1.52;;;0.77;;
69542;SDS011;56762;49.494;11.768;2022-09-11T05:01:42;3.17;;;1.30;;
69542;SDS011;56762;49.494;11.768;2022-09-11T05:04:11;1.93;;;0.90;;
69542;SDS011;56762;49.494;11.768;2022-09-11T05:06:40;1.80;;;0.82;;
69542;SDS011;56762;49.494;11.768;2022-09-11T05:09:10;1.38;;;0.80;;
69542;SDS011;56762;49.494;11.768;2022-09-11T05:11:38;2.00;;;0.70;;
69542;SDS011;56762;49.494;11.768;2022-09-11T05:14:06;2.05;;;0.80;;
69542;SDS011;56762;49.494;11.768;2022-09-11T05:16:35;4.23;;;1.30;;
69542;SDS011;56762;49.494;11.768;2022-09-11T05:19:04;1.70;;;0.80;;
69542;SDS011;56762;49.494;11.768;2022-09-11T05:21:33;1.70;;;0.98;;
69542;SDS011;56762;49.494;11.768;2022-09-11T05:24:02;1.90;;;0.95;;
69542;SDS011;56762;49.494;11.768;2022-09-11T05:26:30;2.10;;;0.88;;
69542;SDS011;56762;49.494;11.768;2022-09-11T05:28:59;1.37;;;0.77;;
69542;SDS011;56762;49.494;11.768;2022-09-11T05:31:28;2.45;;;1.20;;
69542;SDS011;56762;49.494;11.768;2022-09-11T05:33:57;2.00;;;0.90;;
69542;SDS011;56762;49.494;11.768;2022-09-11T05:36:27;1.67;;;0.90;;
69542;SDS011;56762;49.494;11.768;2022-09-11T05:38:56;1.75;;;0.85;;
69542;SDS011;56762;49.494;11.768;2022-09-11T05:41:25;1.73;;;1.13;;
69542;SDS011;56762;49.494;11.768;2022-09-11T05:43:53;2.58;;;1.23;;
69542;SDS011;56762;49.494;11.768;2022-09-11T05:46:21;1.60;;;1.00;;
69542;SDS011;56762;49.494;11.768;2022-09-11T05:48:51;1.65;;;0.98;;
69542;SDS011;56762;49.494;11.768;2022-09-11T05:51:19;2.47;;;1.38;;
69542;SDS011;56762;49.494;11.768;2022-09-11T05:53:50;1.87;;;1.03;;
69542;SDS011;56762;49.494;11.768;2022-09-11T05:56:20;1.58;;;1.00;;
69542;SDS011;56762;49.494;11.768;2022-09-11T05:58:49;2.20;;;1.33;;
69542;SDS011;56762;49.494;11.768;2022-09-11T06:01:18;1.83;;;0.95;;
69542;SDS011;56762;49.494;11.768;2022-09-11T06:03:48;2.03;;;1.05;;
69542;SDS011;56762;49.494;11.768;2022-09-11T06:06:17;1.90;;;0.90;;
69542;SDS011;56762;49.494;11.768;2022-09-11T06:08:48;2.22;;;0.90;;
69542;SDS011;56762;49.494;11.768;2022-09-11T06:11:17;2.50;;;0.80;;
69542;SDS011;56762;49.494;11.768;2022-09-11T06:13:47;2.53;;;0.82;;
69542;SDS011;56762;49.494;11.768;2022-09-11T06:16:16;2.05;;;0.70;;
69542;SDS011;56762;49.494;11.768;2022-09-11T06:18:46;2.17;;;0.80;;
69542;SDS011;56762;49.494;11.768;2022-09-11T06:21:15;1.85;;;0.50;;
69542;SDS011;56762;49.494;11.768;2022-09-11T06:23:46;2.00;;;0.73;;
69542;SDS011;56762;49.494;11.768;2022-09-11T06:26:16;1.65;;;0.60;;
69542;SDS011;56762;49.494;11.768;2022-09-11T06:28:46;1.20;;;0.60;;
69542;SDS011;56762;49.494;11.768;2022-09-11T06:31:16;2.33;;;0.77;;
69542;SDS011;56762;49.494;11.768;2022-09-11T06:33:45;1.73;;;0.93;;
69542;SDS011;56762;49.494;11.768;2022-09-11T06:36:14;1.80;;;0.90;;
69542;SDS011;56762;49.494;11.768;2022-09-11T06:38:44;1.90;;;0.70;;
69542;SDS011;56762;49.494;11.768;2022-09-11T06:41:13;1.95;;;0.70;;
69542;SDS011;56762;49.494;11.768;2022-09-11T06:43:43;1.43;;;0.70;;
69542;SDS011;56762;49.494;11.768;2022-09-11T06:46:11;1.10;;;0.55;;
69542;SDS011;56762;49.494;11.768;2022-09-11T06:48:41;1.88;;;0.85;;
69542;SDS011;56762;49.494;11.768;2022-09-11T06:51:10;1.45;;;0.60;;
69542;SDS011;56762;49.494;11.768;2022-09-11T06:53:39;1.20;;;0.65;;
69542;SDS011;56762;49.494;11.768;2022-09-11T06:56:08;1.17;;;0.70;;
69542;SDS011;56762;49.494;11.768;2022-09-11T06:58:38;1.35;;;0.70;;
69542;SDS011;56762;49.494;11.768;2022-09-11T07:01:10;1.00;;;0.55;;
69542;SDS011;56762;49.494;11.768;2022-09-11T07:03:40;2.42;;;0.80;;
69542;SDS011;56762;49.494;11.768;2022-09-11T07:06:10;2.65;;;0.80;;
69542;SDS011;56762;49.494;11.768;2022-09-11T07:08:38;1.37;;;0.60;;
69542;SDS011;56762;49.494;11.768;2022-09-11T07:11:07;1.20;;;0.60;;
69542;SDS011;56762;49.494;11.768;2022-09-11T07:13:36;1.08;;;0.40;;
69542;SDS011;56762;49.494;11.768;2022-09-11T07:16:06;1.17;;;0.60;;
69542;SDS011;56762;49.494;11.768;2022-09-11T07:18:38;1.50;;;0.60;;
69542;SDS011;56762;49.494;11.768;2022-09-11T07:21:08;4.93;;;0.80;;
69542;SDS011;56762;49.494;11.768;2022-09-11T07:23:37;1.25;;;0.40;;
69542;SDS011;56762;49.494;11.768;2022-09-11T07:26:07;0.70;;;0.30;;
69542;SDS011;56762;49.494;11.768;2022-09-11T07:28:36;0.80;;;0.35;;
69542;SDS011;56762;49.494;11.768;2022-09-11T07:31:05;0.88;;;0.38;;
69542;SDS011;56762;49.494;11.768;2022-09-11T07:33:37;0.70;;;0.33;;
69542;SDS011;56762;49.494;11.768;2022-09-11T07:36:06;1.17;;;0.30;;
69542;SDS011;56762;49.494;11.768;2022-09-11T07:38:38;0.75;;;0.20;;
69542;SDS011;56762;49.494;11.768;2022-09-11T07:41:07;0.98;;;0.40;;
69542;SDS011;56762;49.494;11.768;2022-09-11T07:43:36;1.70;;;0.40;;
69542;SDS011;56762;49.494;11.768;2022-09-11T07:46:05;1.23;;;0.30;;
69542;SDS011;56762;49.494;11.768;2022-09-11T07:48:35;1.23;;;0.35;;
69542;SDS011;56762;49.494;11.768;2022-09-11T07:51:05;2.08;;;0.30;;
69542;SDS011;56762;49.494;11.768;2022-09-11T07:53:35;0.80;;;0.60;;
69542;SDS011;56762;49.494;11.768;2022-09-11T07:56:04;1.55;;;0.50;;
69542;SDS011;56762;49.494;11.768;2022-09-11T07:58:34;0.87;;;0.43;;
69542;SDS011;56762;49.494;11.768;2022-09-11T08:01:03;1.20;;;0.60;;
69542;SDS011;56762;49.494;11.768;2022-09-11T08:03:32;1.08;;;0.40;;
69542;SDS011;56762;49.494;11.768;2022-09-11T08:06:02;1.42;;;0.40;;
69542;SDS011;56762;49.494;11.768;2022-09-11T08:08:31;1.45;;;0.35;;
69542;SDS011;56762;49.494;11.768;2022-09-11T08:11:00;0.70;;;0.30;;
69542;SDS011;56762;49.494;11.768;2022-09-11T08:13:29;1.10;;;0.52;;
69542;SDS011;56762;49.494;11.768;2022-09-11T08:15:57;1.02;;;0.45;;
69542;SDS011;56762;49.494;11.768;2022-09-11T08:18:25;0.90;;;0.30;;
69542;SDS011;56762;49.494;11.768;2022-09-11T08:20:59;1.20;;;0.55;;
69542;SDS011;56762;49.494;11.768;2022-09-11T08:23:29;3.90;;;1.60;;
69542;SDS011;56762;49.494;11.768;2022-09-11T08:26:02;6.82;;;3.10;;
69542;SDS011;56762;49.494;11.768;2022-09-11T08:28:31;3.55;;;1.10;;
69542;SDS011;56762;49.494;11.768;2022-09-11T08:31:00;2.75;;;0.40;;
69542;SDS011;56762;49.494;11.768;2022-09-11T08:33:29;0.77;;;0.40;;
69542;SDS011;56762;49.494;11.768;2022-09-11T08:35:58;0.87;;;0.30;;
69542;SDS011;56762;49.494;11.768;2022-09-11T08:38:27;0.70;;;0.32;;
69542;SDS011;56762;49.494;11.768;2022-09-11T08:40:56;0.80;;;0.40;;
69542;SDS011;56762;49.494;11.768;2022-09-11T08:43:27;0.70;;;0.30;;
69542;SDS011;56762;49.494;11.768;2022-09-11T08:46:01;0.80;;;0.30;;
69542;SDS011;56762;49.494;11.768;2022-09-11T08:48:33;0.73;;;0.37;;
69542;SDS011;56762;49.494;11.768;2022-09-11T08:51:13;0.70;;;0.30;;
69542;SDS011;56762;49.494;11.768;2022-09-11T08:53:44;1.27;;;0.47;;
69542;SDS011;56762;49.494;11.768;2022-09-11T08:56:16;0.85;;;0.38;;
69542;SDS011;56762;49.494;11.768;2022-09-11T08:58:46;1.98;;;0.65;;
69542;SDS011;56762;49.494;11.768;2022-09-11T09:01:30;1.30;;;0.50;;
69542;SDS011;56762;49.494;11.768;2022-09-11T09:04:09;2.70;;;0.40;;
69542;SDS011;56762;49.494;11.768;2022-09-11T09:06:56;1.10;;;0.52;;
69542;SDS011;56762;49.494;11.768;2022-09-11T09:09:34;0.80;;;0.40;;
69542;SDS011;56762;49.494;11.768;2022-09-11T09:12:14;1.10;;;0.50;;
69542;SDS011;56762;49.494;11.768;2022-09-11T09:18:00;1.75;;;0.68;;
69542;SDS011;56762;49.494;11.768;2022-09-11T09:20:33;1.20;;;0.60;;
69542;SDS011;56762;49.494;11.768;2022-09-11T09:23:04;1.30;;;0.50;;
69542;SDS011;56762;49.494;11.768;2022-09-11T09:25:39;0.90;;;0.40;;
69542;SDS011;56762;49.494;11.768;2022-09-11T09:28:14;1.37;;;0.73;;
69542;SDS011;56762;49.494;11.768;2022-09-11T09:30:48;1.30;;;0.60;;
69542;SDS011;56762;49.494;11.768;2022-09-11T09:33:21;2.35;;;0.80;;
69542;SDS011;56762;49.494;11.768;2022-09-11T09:35:56;1.33;;;0.63;;
69542;SDS011;56762;49.494;11.768;2022-09-11T09:38:28;1.50;;;0.65;;
69542;SDS011;56762;49.494;11.768;2022-09-11T09:41:02;2.00;;;0.70;;
69542;SDS011;56762;49.494;11.768;2022-09-11T09:43:44;1.30;;;0.70;;
69542;SDS011;56762;49.494;11.768;2022-09-11T09:46:20;1.55;;;0.70;;
69542;SDS011;56762;49.494;11.768;2022-09-11T09:48:54;1.90;;;0.82;;
69542;SDS011;56762;49.494;11.768;2022-09-11T09:51:22;1.50;;;0.75;;
69542;SDS011;56762;49.494;11.768;2022-09-11T09:53:51;1.50;;;0.77;;
69542;SDS011;56762;49.494;11.768;2022-09-11T09:56:21;1.50;;;0.70;;
69542;SDS011;56762;49.494;11.768;2022-09-11T09:58:56;2.42;;;0.65;;
69542;SDS011;56762;49.494;11.768;2022-09-11T10:01:46;4.85;;;2.75;;
69542;SDS011;56762;49.494;11.768;2022-09-11T10:04:17;2.47;;;1.08;;
69542;SDS011;56762;49.494;11.768;2022-09-11T10:06:48;1.83;;;0.70;;
69542;SDS011;56762;49.494;11.768;2022-09-11T10:09:22;3.20;;;1.20;;
69542;SDS011;56762;49.494;11.768;2022-09-11T10:11:55;2.05;;;1.10;;
69542;SDS011;56762;49.494;11.768;2022-09-11T10:14:30;1.40;;;0.90;;
69542;SDS011;56762;49.494;11.768;2022-09-11T10:17:20;3.30;;;1.20;;
69542;SDS011;56762;49.494;11.768;2022-09-11T10:19:50;3.73;;;1.10;;
69542;SDS011;56762;49.494;11.768;2022-09-11T10:22:23;2.15;;;0.68;;
69542;SDS011;56762;49.494;11.768;2022-09-11T10:25:07;1.73;;;0.80;;
69542;SDS011;56762;49.494;11.768;2022-09-11T10:27:39;1.85;;;0.88;;
69542;SDS011;56762;49.494;11.768;2022-09-11T10:30:26;1.77;;;0.73;;
69542;SDS011;56762;49.494;11.768;2022-09-11T10:32:56;1.40;;;0.70;;
69542;SDS011;56762;49.494;11.768;2022-09-11T10:35:29;1.63;;;0.90;;
69542;SDS011;56762;49.494;11.768;2022-09-11T10:40:55;1.80;;;0.90;;
69542;SDS011;56762;49.494;11.768;2022-09-11T10:43:32;3.08;;;1.00;;
69542;SDS011;56762;49.494;11.768;2022-09-11T10:46:21;1.50;;;0.80;;
69542;SDS011;56762;49.494;11.768;2022-09-11T10:48:55;1.88;;;0.80;;
69542;SDS011;56762;49.494;11.768;2022-09-11T10:51:24;1.83;;;1.00;;
69542;SDS011;56762;49.494;11.768;2022-09-11T10:54:00;2.08;;;0.98;;
69542;SDS011;56762;49.494;11.768;2022-09-11T10:56:40;1.73;;;0.75;;
69542;SDS011;56762;49.494;11.768;2022-09-11T10:59:17;3.53;;;1.53;;
69542;SDS011;56762;49.494;11.768;2022-09-11T11:01:52;1.52;;;0.60;;
69542;SDS011;56762;49.494;11.768;2022-09-11T11:04:21;2.15;;;0.70;;
69542;SDS011;56762;49.494;11.768;2022-09-11T11:06:54;2.20;;;0.80;;
69542;SDS011;56762;49.494;11.768;2022-09-11T11:09:31;1.90;;;0.90;;
69542;SDS011;56762;49.494;11.768;2022-09-11T11:12:20;1.60;;;0.70;;
69542;SDS011;56762;49.494;11.768;2022-09-11T11:18:09;1.75;;;0.90;;
69542;SDS011;56762;49.494;11.768;2022-09-11T11:20:50;2.75;;;1.00;;
69542;SDS011;56762;49.494;11.768;2022-09-11T11:23:24;2.40;;;0.98;;
69542;SDS011;56762;49.494;11.768;2022-09-11T11:26:21;2.37;;;1.00;;
69542;SDS011;56762;49.494;11.768;2022-09-11T11:29:02;2.10;;;1.20;;
69542;SDS011;56762;49.494;11.768;2022-09-11T11:31:45;2.10;;;1.23;;
69542;SDS011;56762;49.494;11.768;2022-09-11T11:34:31;1.52;;;0.90;;
69542;SDS011;56762;49.494;11.768;2022-09-11T11:37:04;2.20;;;1.05;;
69542;SDS011;56762;49.494;11.768;2022-09-11T11:39:40;2.07;;;1.13;;
69542;SDS011;56762;49.494;11.768;2022-09-11T11:42:16;1.90;;;1.10;;
69542;SDS011;56762;49.494;11.768;2022-09-11T11:44:50;1.58;;;0.90;;
69542;SDS011;56762;49.494;11.768;2022-09-11T11:47:21;2.40;;;1.13;;
69542;SDS011;56762;49.494;11.768;2022-09-11T11:49:57;1.98;;;1.13;;
69542;SDS011;56762;49.494;11.768;2022-09-11T11:52:33;1.80;;;0.90;;
69542;SDS011;56762;49.494;11.768;2022-09-11T11:55:13;2.17;;;1.10;;
69542;SDS011;56762;49.494;11.768;2022-09-11T11:57:47;3.00;;;1.50;;
69542;SDS011;56762;49.494;11.768;2022-09-11T12:00:23;5.72;;;2.65;;
69542;SDS011;56762;49.494;11.768;2022-09-11T12:02:54;1.55;;;1.10;;
69542;SDS011;56762;49.494;11.768;2022-09-11T12:05:29;2.20;;;1.50;;
69542;SDS011;56762;49.494;11.768;2022-09-11T12:07:59;2.35;;;1.10;;
69542;SDS011;56762;49.494;11.768;2022-09-11T12:10:28;2.33;;;1.00;;
69542;SDS011;56762;49.494;11.768;2022-09-11T12:13:00;1.80;;;1.10;;
69542;SDS011;56762;49.494;11.768;2022-09-11T12:15:29;1.80;;;1.10;;
69542;SDS011;56762;49.494;11.768;2022-09-11T12:18:00;2.17;;;1.10;;
69542;SDS011;56762;49.494;11.768;2022-09-11T12:20:33;2.13;;;1.10;;
69542;SDS011;56762;49.494;11.768;2022-09-11T12:23:05;2.78;;;1.58;;
69542;SDS011;56762;49.494;11.768;2022-09-11T12:25:48;2.90;;;1.55;;
69542;SDS011;56762;49.494;11.768;2022-09-11T12:28:28;2.58;;;1.23;;
69542;SDS011;56762;49.494;11.768;2022-09-11T12:30:59;3.17;;;1.10;;
69542;SDS011;56762;49.494;11.768;2022-09-11T12:36:33;3.03;;;1.20;;
69542;SDS011;56762;49.494;11.768;2022-09-11T12:39:23;2.60;;;1.40;;
69542;SDS011;56762;49.494;11.768;2022-09-11T12:45:03;2.80;;;1.50;;
69542;SDS011;56762;49.494;11.768;2022-09-11T12:47:51;2.50;;;1.42;;
69542;SDS011;56762;49.494;11.768;2022-09-11T12:50:20;2.28;;;1.45;;
69542;SDS011;56762;49.494;11.768;2022-09-11T12:52:53;2.70;;;1.55;;
69542;SDS011;56762;49.494;11.768;2022-09-11T12:55:28;2.42;;;1.60;;
69542;SDS011;56762;49.494;11.768;2022-09-11T12:58:00;2.90;;;1.57;;
69542;SDS011;56762;49.494;11.768;2022-09-11T13:00:32;2.35;;;1.58;;
69542;SDS011;56762;49.494;11.768;2022-09-11T13:03:04;2.67;;;1.50;;
69542;SDS011;56762;49.494;11.768;2022-09-11T13:05:34;2.50;;;1.40;;
69542;SDS011;56762;49.494;11.768;2022-09-11T13:08:06;2.28;;;1.40;;
69542;SDS011;56762;49.494;11.768;2022-09-11T13:10:41;3.23;;;1.40;;
69542;SDS011;56762;49.494;11.768;2022-09-11T13:16:15;3.97;;;2.00;;
69542;SDS011;56762;49.494;11.768;2022-09-11T13:18:44;2.80;;;1.33;;
69542;SDS011;56762;49.494;11.768;2022-09-11T13:21:13;2.90;;;1.70;;
69542;SDS011;56762;49.494;11.768;2022-09-11T13:23:44;2.77;;;1.90;;
69542;SDS011;56762;49.494;11.768;2022-09-11T13:26:24;2.97;;;2.15;;
69542;SDS011;56762;49.494;11.768;2022-09-11T13:28:57;4.50;;;2.90;;
69542;SDS011;56762;49.494;11.768;2022-09-11T13:31:30;3.28;;;2.25;;
69542;SDS011;56762;49.494;11.768;2022-09-11T13:34:01;2.97;;;1.90;;
69542;SDS011;56762;49.494;11.768;2022-09-11T13:36:33;2.83;;;2.20;;
69542;SDS011;56762;49.494;11.768;2022-09-11T13:39:03;2.67;;;1.83;;
69542;SDS011;56762;49.494;11.768;2022-09-11T13:41:33;2.67;;;1.60;;
69542;SDS011;56762;49.494;11.768;2022-09-11T13:44:06;3.50;;;2.00;;
69542;SDS011;56762;49.494;11.768;2022-09-11T13:46:47;3.33;;;1.98;;
69542;SDS011;56762;49.494;11.768;2022-09-11T13:49:24;3.53;;;2.00;;
69542;SDS011;56762;49.494;11.768;2022-09-11T13:51:57;3.03;;;1.85;;
69542;SDS011;56762;49.494;11.768;2022-09-11T13:54:27;3.97;;;2.20;;
69542;SDS011;56762;49.494;11.768;2022-09-11T13:57:05;3.35;;;2.67;;
69542;SDS011;56762;49.494;11.768;2022-09-11T13:59:42;2.95;;;1.90;;
69542;SDS011;56762;49.494;11.768;2022-09-11T14:02:21;3.40;;;2.37;;
69542;SDS011;56762;49.494;11.768;2022-09-11T14:05:17;5.07;;;2.35;;
69542;SDS011;56762;49.494;11.768;2022-09-11T14:07:50;3.58;;;2.40;;
69542;SDS011;56762;49.494;11.768;2022-09-11T14:10:24;4.20;;;2.67;;
69542;SDS011;56762;49.494;11.768;2022-09-11T14:12:56;5.22;;;2.72;;
69542;SDS011;56762;49.494;11.768;2022-09-11T14:15:31;3.97;;;2.80;;
69542;SDS011;56762;49.494;11.768;2022-09-11T14:18:06;6.88;;;4.30;;
69542;SDS011;56762;49.494;11.768;2022-09-11T14:20:43;4.90;;;3.53;;
69542;SDS011;56762;49.494;11.768;2022-09-11T14:23:14;3.83;;;2.80;;
69542;SDS011;56762;49.494;11.768;2022-09-11T14:28:34;4.40;;;2.80;;
69542;SDS011;56762;49.494;11.768;2022-09-11T14:31:07;3.47;;;2.58;;
69542;SDS011;56762;49.494;11.768;2022-09-11T14:33:37;3.92;;;2.83;;
69542;SDS011;56762;49.494;11.768;2022-09-11T14:36:07;3.67;;;2.70;;
69542;SDS011;56762;49.494;11.768;2022-09-11T14:38:42;4.72;;;2.90;;
69542;SDS011;56762;49.494;11.768;2022-09-11T14:41:12;3.83;;;2.70;;
69542;SDS011;56762;49.494;11.768;2022-09-11T14:43:39;4.07;;;3.30;;
69542;SDS011;56762;49.494;11.768;2022-09-11T14:46:09;3.92;;;2.70;;
69542;SDS011;56762;49.494;11.768;2022-09-11T14:48:37;4.70;;;3.10;;
69542;SDS011;56762;49.494;11.768;2022-09-11T14:51:08;7.38;;;3.78;;
69542;SDS011;56762;49.494;11.768;2022-09-11T14:53:39;5.70;;;3.20;;
69542;SDS011;56762;49.494;11.768;2022-09-11T14:56:08;4.30;;;3.10;;
69542;SDS011;56762;49.494;11.768;2022-09-11T14:58:37;4.55;;;3.10;;
69542;SDS011;56762;49.494;11.768;2022-09-11T15:01:05;6.22;;;3.60;;
69542;SDS011;56762;49.494;11.768;2022-09-11T15:03:33;5.60;;;3.80;;
69542;SDS011;56762;49.494;11.768;2022-09-11T15:06:01;5.67;;;3.90;;
69542;SDS011;56762;49.494;11.768;2022-09-11T15:08:28;5.30;;;3.22;;
69542;SDS011;56762;49.494;11.768;2022-09-11T15:10:56;4.28;;;2.75;;
69542;SDS011;56762;49.494;11.768;2022-09-11T15:13:24;3.80;;;3.10;;
69542;SDS011;56762;49.494;11.768;2022-09-11T15:15:53;3.78;;;2.92;;
69542;SDS011;56762;49.494;11.768;2022-09-11T15:18:21;3.70;;;2.90;;
69542;SDS011;56762;49.494;11.768;2022-09-11T15:20:49;4.93;;;3.25;;
69542;SDS011;56762;49.494;11.768;2022-09-11T15:23:17;5.35;;;3.05;;
69542;SDS011;56762;49.494;11.768;2022-09-11T15:25:44;4.80;;;3.30;;
69542;SDS011;56762;49.494;11.768;2022-09-11T15:28:12;4.75;;;3.45;;